createdAt,value
2023-05-01T00:02:21.780Z,97.01
2023-05-01T00:07:25.499Z,96.91
2023-05-01T00:12:29.068Z,96.66
2023-05-01T00:17:32.004Z,96.68
2023-05-01T00:22:34.925Z,96.69
2023-05-01T00:27:37.845Z,96.56
2023-05-01T00:32:41.670Z,96.56
2023-05-01T00:37:45.119Z,96.61
2023-05-01T00:42:48.084Z,96.77
2023-05-01T00:47:51.204Z,96.45
2023-05-01T00:52:54.244Z,96.85
2023-05-01T00:57:57.526Z,96.59
2023-05-01T01:03:01.039Z,96.61
2023-05-01T01:08:31.325Z,96.83
2023-05-01T01:13:58.303Z,96.97
2023-05-01T01:19:37.546Z,96.91
2023-05-01T01:25:30.130Z,96.59
2023-05-01T01:31:17.644Z,96.71
2023-05-01T01:36:43.441Z,96.91
2023-05-01T01:41:52.904Z,97.03
2023-05-01T01:46:56.688Z,97.14
2023-05-01T01:52:02.617Z,97.23
2023-05-01T01:57:08.960Z,97.13
2023-05-01T02:02:14.094Z,97.35
2023-05-01T02:07:19.021Z,97.26
2023-05-01T02:12:26.895Z,97.29
2023-05-01T02:17:30.902Z,96.98
2023-05-01T02:22:34.423Z,97.22
2023-05-01T02:27:47.563Z,97.31
2023-05-01T02:32:50.906Z,97.08
2023-05-01T02:37:54.206Z,97.12
2023-05-01T02:42:58.794Z,97.07
2023-05-01T02:48:05.975Z,96.83
2023-05-01T02:53:09.727Z,96.77
2023-05-01T02:58:20.409Z,96.56
2023-05-01T03:03:23.439Z,96.39
2023-05-01T03:08:26.632Z,96.32
2023-05-01T03:13:29.906Z,96.18
2023-05-01T03:18:33.338Z,96.51
2023-05-01T03:23:38.425Z,96.51
2023-05-01T03:28:41.408Z,96.54
2023-05-01T03:33:44.272Z,96.45
2023-05-01T03:38:47.514Z,96.25
2023-05-01T03:43:50.817Z,96.49
2023-05-01T03:48:54.474Z,96.59
2023-05-01T03:53:58.897Z,97.11
2023-05-01T03:59:02.445Z,97.62
2023-05-01T04:04:05.855Z,98.41
2023-05-01T04:09:08.783Z,98.78
2023-05-01T04:14:11.738Z,98.96
2023-05-01T04:19:16.061Z,98.89
2023-05-01T04:24:19.046Z,99.25
2023-05-01T04:29:22.028Z,99.51
2023-05-01T04:34:25.885Z,99.29
2023-05-01T04:39:28.877Z,99.72
2023-05-01T04:44:34.275Z,99.48
2023-05-01T04:49:37.179Z,99.48
2023-05-01T04:54:40.144Z,99.69
2023-05-01T04:59:43.341Z,99.64
2023-05-01T05:04:46.272Z,99.44
2023-05-01T05:09:49.262Z,99.50
2023-05-01T05:14:52.190Z,99.17
2023-05-01T05:19:55.605Z,98.29
2023-05-01T05:25:04.182Z,96.63
2023-05-01T05:30:08.529Z,93.53
2023-05-01T05:35:11.638Z,88.71
2023-05-01T05:40:14.843Z,86.60
2023-05-01T05:45:17.868Z,85.76
2023-05-01T05:50:20.908Z,83.71
2023-05-01T05:55:23.863Z,80.58
2023-05-01T06:00:27.322Z,78.92
2023-05-01T06:05:30.507Z,74.82
2023-05-01T06:10:33.462Z,72.94
2023-05-01T06:15:38.372Z,73.53
2023-05-01T06:20:42.819Z,72.60
2023-05-01T06:25:47.087Z,70.41
2023-05-01T06:30:50.162Z,69.79
2023-05-01T06:35:54.634Z,67.05
2023-05-01T06:40:58.019Z,66.86
2023-05-01T06:46:01.449Z,64.12
2023-05-01T06:51:04.592Z,58.02
2023-05-01T06:56:08.826Z,55.05
2023-05-01T07:01:11.925Z,56.14
2023-05-01T07:06:15.230Z,56.44
2023-05-01T07:11:18.267Z,56.73
2023-05-01T07:16:21.783Z,54.06
2023-05-01T07:21:25.054Z,53.59
2023-05-01T07:26:28.165Z,54.44
2023-05-01T07:31:31.356Z,54.81
2023-05-01T07:36:34.449Z,52.84
2023-05-01T07:41:37.413Z,51.71
2023-05-01T07:46:40.758Z,52.13
2023-05-01T07:51:44.844Z,51.47
2023-05-01T07:56:49.677Z,50.29
2023-05-01T08:01:52.818Z,50.35
2023-05-01T08:06:55.880Z,48.30
2023-05-01T08:11:58.975Z,46.51
2023-05-01T08:17:01.902Z,44.21
2023-05-01T08:22:05.398Z,45.50
2023-05-01T08:27:09.482Z,44.36
2023-05-01T08:32:12.600Z,43.87
2023-05-01T08:37:15.770Z,44.21
2023-05-01T08:42:19.451Z,43.88
2023-05-01T08:47:22.944Z,42.25
2023-05-01T08:52:27.342Z,42.58
2023-05-01T08:57:31.955Z,41.53
2023-05-01T09:02:36.011Z,40.99
2023-05-01T09:07:40.954Z,40.91
2023-05-01T09:12:47.826Z,40.68
2023-05-01T09:17:51.311Z,39.30
2023-05-01T09:22:56.937Z,40.41
2023-05-01T09:28:00.082Z,38.99
2023-05-01T09:33:14.000Z,39.00
2023-05-01T09:38:27.891Z,38.50
2023-05-01T09:43:31.820Z,38.05
2023-05-01T09:48:36.269Z,38.27
2023-05-01T09:53:40.907Z,39.73
2023-05-01T09:58:44.563Z,38.51
2023-05-01T10:03:55.041Z,38.29
2023-05-01T10:08:58.207Z,39.19
2023-05-01T10:14:11.348Z,37.64
2023-05-01T10:19:17.502Z,37.00
2023-05-01T10:24:21.583Z,37.19
2023-05-01T10:29:27.988Z,36.22
2023-05-01T10:34:34.128Z,38.59
2023-05-01T10:39:37.453Z,39.14
2023-05-01T10:44:42.475Z,37.64
2023-05-01T10:50:11.398Z,36.77
2023-05-01T10:55:37.396Z,36.27
2023-05-01T11:00:41.413Z,36.43
2023-05-01T11:06:16.850Z,37.04
2023-05-01T11:11:22.971Z,35.66
2023-05-01T11:16:38.517Z,34.81
2023-05-01T11:21:42.198Z,36.83
2023-05-01T11:26:45.252Z,36.30
2023-05-01T11:31:49.010Z,35.20
2023-05-01T11:36:53.597Z,35.85
2023-05-01T11:42:09.962Z,35.70
2023-05-01T11:47:13.762Z,33.34
2023-05-01T11:52:17.516Z,34.47
2023-05-01T11:57:20.472Z,34.55
2023-05-01T12:02:23.758Z,34.11
2023-05-01T12:07:26.773Z,33.76
2023-05-01T12:12:30.312Z,34.66
2023-05-01T12:17:33.470Z,32.40
2023-05-01T12:22:50.454Z,33.01
2023-05-01T12:27:53.887Z,32.00
2023-05-01T12:32:58.614Z,28.96
2023-05-01T12:38:18.180Z,29.49
2023-05-01T12:43:29.807Z,28.51
2023-05-01T12:48:35.850Z,27.97
2023-05-01T12:53:44.714Z,27.22
2023-05-01T12:58:48.063Z,28.40
2023-05-01T13:03:51.332Z,27.39
2023-05-01T13:08:54.219Z,27.29
2023-05-01T13:14:11.713Z,27.74
2023-05-01T13:19:24.726Z,28.61
2023-05-01T13:24:41.858Z,28.87
2023-05-01T13:29:58.655Z,28.69
2023-05-01T13:35:02.986Z,29.96
2023-05-01T13:40:06.988Z,29.11
2023-05-01T13:45:11.428Z,29.25
2023-05-01T13:50:16.194Z,29.43
2023-05-01T13:55:21.851Z,29.12
2023-05-01T14:00:26.093Z,28.34
2023-05-01T14:05:29.117Z,27.74
2023-05-01T14:10:32.435Z,26.89
2023-05-01T14:15:36.041Z,26.35
2023-05-01T14:20:41.032Z,26.05
2023-05-01T14:25:46.644Z,25.96
2023-05-01T14:30:51.412Z,24.96
2023-05-01T14:35:55.419Z,26.04
2023-05-01T14:40:58.501Z,24.68
2023-05-01T14:46:01.483Z,25.42
2023-05-01T14:51:10.508Z,25.98
2023-05-01T14:56:13.582Z,25.98
2023-05-01T15:01:18.299Z,26.10
2023-05-01T15:06:21.828Z,26.12
2023-05-01T15:11:24.824Z,25.31
2023-05-01T15:16:28.032Z,26.71
2023-05-01T15:21:32.073Z,27.24
2023-05-01T15:26:35.012Z,26.43
2023-05-01T15:31:38.151Z,26.43
2023-05-01T15:36:41.767Z,27.20
2023-05-01T15:41:45.097Z,26.72
2023-05-01T15:46:56.155Z,27.02
2023-05-01T15:51:59.499Z,27.59
2023-05-01T15:57:03.279Z,27.98
2023-05-01T16:02:08.878Z,28.12
2023-05-01T16:07:13.364Z,28.44
2023-05-01T16:12:16.428Z,29.26
2023-05-01T16:17:19.777Z,29.70
2023-05-01T16:22:22.888Z,30.61
2023-05-01T16:27:25.881Z,30.96
2023-05-01T16:32:29.500Z,31.32
2023-05-01T16:37:34.189Z,32.48
2023-05-01T16:42:38.495Z,33.03
2023-05-01T16:47:41.534Z,33.63
2023-05-01T16:52:44.712Z,34.33
2023-05-01T16:57:48.144Z,34.59
2023-05-01T17:02:52.421Z,34.56
2023-05-01T17:07:55.404Z,34.18
2023-05-01T17:13:02.330Z,34.22
2023-05-01T17:18:05.907Z,34.16
2023-05-01T17:23:09.881Z,34.25
2023-05-01T17:28:12.907Z,34.71
2023-05-01T17:33:16.223Z,34.36
2023-05-01T17:38:19.393Z,35.13
2023-05-01T17:43:22.543Z,35.28
2023-05-01T17:48:25.718Z,36.46
2023-05-01T17:53:28.655Z,36.91
2023-05-01T17:58:31.973Z,37.42
2023-05-01T18:03:35.266Z,38.25
2023-05-01T18:08:38.390Z,38.93
2023-05-01T18:13:43.848Z,40.32
2023-05-01T18:18:49.621Z,41.67
2023-05-01T18:23:52.630Z,41.87
2023-05-01T18:28:55.871Z,42.71
2023-05-01T18:33:59.528Z,43.37
2023-05-01T18:39:02.424Z,43.36
2023-05-01T18:44:06.191Z,43.35
2023-05-01T18:49:11.018Z,43.75
2023-05-01T18:54:14.122Z,44.31
2023-05-01T18:59:19.513Z,45.18
2023-05-01T19:04:22.762Z,45.99
2023-05-01T19:09:25.909Z,45.90
2023-05-01T19:14:28.887Z,46.28
2023-05-01T19:19:31.872Z,46.26
2023-05-01T19:24:35.039Z,47.00
2023-05-01T19:29:39.820Z,47.48
2023-05-01T19:34:42.668Z,47.85
2023-05-01T19:39:45.999Z,48.44
2023-05-01T19:44:49.429Z,49.30
2023-05-01T19:49:52.388Z,49.59
2023-05-01T19:54:55.309Z,50.07
2023-05-01T20:00:01.200Z,50.98
2023-05-01T20:05:05.829Z,51.79
2023-05-01T20:10:09.781Z,52.16
2023-05-01T20:15:12.854Z,52.68
2023-05-01T20:20:20.034Z,52.71
2023-05-01T20:25:24.300Z,52.83
2023-05-01T20:30:27.199Z,52.97
2023-05-01T20:35:33.788Z,53.02
2023-05-01T20:40:40.893Z,52.75
2023-05-01T20:45:43.899Z,53.11
2023-05-01T20:50:48.349Z,53.20
2023-05-01T20:55:51.374Z,53.63
2023-05-01T21:00:55.894Z,55.00
2023-05-01T21:06:02.283Z,55.68
2023-05-01T21:11:06.001Z,55.89
2023-05-01T21:16:16.990Z,57.10
2023-05-01T21:21:19.712Z,56.80
2023-05-01T21:26:22.710Z,56.86
2023-05-01T21:31:34.487Z,56.83
2023-05-01T21:36:45.248Z,56.96
2023-05-01T21:41:49.533Z,57.49
2023-05-01T21:46:55.317Z,57.50
2023-05-01T21:52:00.023Z,58.34
2023-05-01T21:57:05.760Z,59.18
2023-05-01T22:02:11.428Z,59.47
2023-05-01T22:07:14.450Z,59.87
2023-05-01T22:12:17.383Z,60.42
2023-05-01T22:17:24.380Z,60.54
2023-05-01T22:22:27.534Z,61.18
2023-05-01T22:27:31.252Z,61.23
2023-05-01T22:32:34.403Z,61.30
2023-05-01T22:37:37.885Z,61.91
2023-05-01T22:42:40.977Z,62.16
2023-05-01T22:47:44.037Z,62.75
2023-05-01T22:52:47.010Z,62.99
2023-05-01T22:57:49.972Z,63.35
2023-05-01T23:02:52.958Z,63.98
2023-05-01T23:07:56.011Z,64.32
2023-05-01T23:13:00.209Z,63.96
2023-05-01T23:18:03.817Z,64.04
2023-05-01T23:23:14.357Z,64.78
2023-05-01T23:28:23.437Z,64.91
2023-05-01T23:33:34.462Z,65.45
2023-05-01T23:38:37.255Z,66.00
2023-05-01T23:43:40.384Z,65.91
2023-05-01T23:48:43.515Z,66.30
2023-05-01T23:53:46.644Z,66.86
2023-05-01T23:58:49.688Z,67.19
